sensor_id;sensor_type;location;lat;lon;timestamp;P1;durP1;ratioP1;P2;durP2;ratioP2
70433;SDS011;57876;47.792;12.960;2023-07-24T00:01:59;3.55;;;0.80;;
70433;SDS011;57876;47.792;12.960;2023-07-24T00:04:23;3.50;;;0.70;;
70433;SDS011;57876;47.792;12.960;2023-07-24T00:06:47;3.38;;;0.75;;
70433;SDS011;57876;47.792;12.960;2023-07-24T00:09:12;2.83;;;0.67;;
70433;SDS011;57876;47.792;12.960;2023-07-24T00:11:36;3.17;;;0.60;;
70433;SDS011;57876;47.792;12.960;2023-07-24T00:14:00;3.30;;;0.60;;
70433;SDS011;57876;47.792;12.960;2023-07-24T00:16:25;3.27;;;0.63;;
70433;SDS011;57876;47.792;12.960;2023-07-24T00:18:49;3.40;;;0.70;;
70433;SDS011;57876;47.792;12.960;2023-07-24T00:21:14;3.27;;;0.70;;
70433;SDS011;57876;47.792;12.960;2023-07-24T00:23:38;3.43;;;0.70;;
70433;SDS011;57876;47.792;12.960;2023-07-24T00:26:03;3.10;;;0.60;;
70433;SDS011;57876;47.792;12.960;2023-07-24T00:28:27;3.70;;;0.70;;
70433;SDS011;57876;47.792;12.960;2023-07-24T00:30:52;3.67;;;0.70;;
70433;SDS011;57876;47.792;12.960;2023-07-24T00:33:16;3.70;;;0.80;;
70433;SDS011;57876;47.792;12.960;2023-07-24T00:35:40;3.50;;;0.70;;
70433;SDS011;57876;47.792;12.960;2023-07-24T00:38:05;3.28;;;0.70;;
70433;SDS011;57876;47.792;12.960;2023-07-24T00:40:29;2.67;;;0.50;;
70433;SDS011;57876;47.792;12.960;2023-07-24T00:42:54;3.57;;;0.70;;
70433;SDS011;57876;47.792;12.960;2023-07-24T00:45:18;3.47;;;0.77;;
70433;SDS011;57876;47.792;12.960;2023-07-24T00:47:46;4.63;;;0.77;;
70433;SDS011;57876;47.792;12.960;2023-07-24T00:50:10;3.30;;;0.70;;
70433;SDS011;57876;47.792;12.960;2023-07-24T00:52:35;3.60;;;0.70;;
70433;SDS011;57876;47.792;12.960;2023-07-24T00:55:01;3.33;;;0.70;;
70433;SDS011;57876;47.792;12.960;2023-07-24T00:57:25;4.05;;;0.90;;
70433;SDS011;57876;47.792;12.960;2023-07-24T00:59:50;3.80;;;0.80;;
70433;SDS011;57876;47.792;12.960;2023-07-24T01:02:14;3.90;;;1.00;;
70433;SDS011;57876;47.792;12.960;2023-07-24T01:04:39;3.47;;;0.83;;
70433;SDS011;57876;47.792;12.960;2023-07-24T01:07:03;3.20;;;0.60;;
70433;SDS011;57876;47.792;12.960;2023-07-24T01:09:28;3.90;;;0.80;;
70433;SDS011;57876;47.792;12.960;2023-07-24T01:12:02;3.63;;;0.70;;
70433;SDS011;57876;47.792;12.960;2023-07-24T01:14:36;3.27;;;0.63;;
70433;SDS011;57876;47.792;12.960;2023-07-24T01:17:12;3.35;;;0.68;;
70433;SDS011;57876;47.792;12.960;2023-07-24T01:19:45;3.72;;;0.70;;
70433;SDS011;57876;47.792;12.960;2023-07-24T01:22:14;3.20;;;0.63;;
70433;SDS011;57876;47.792;12.960;2023-07-24T01:24:48;3.72;;;0.75;;
70433;SDS011;57876;47.792;12.960;2023-07-24T01:27:25;3.50;;;0.70;;
70433;SDS011;57876;47.792;12.960;2023-07-24T01:29:50;3.50;;;0.60;;
70433;SDS011;57876;47.792;12.960;2023-07-24T01:32:14;2.97;;;0.60;;
70433;SDS011;57876;47.792;12.960;2023-07-24T01:34:39;3.20;;;0.70;;
70433;SDS011;57876;47.792;12.960;2023-07-24T01:37:03;3.37;;;0.70;;
70433;SDS011;57876;47.792;12.960;2023-07-24T01:39:28;3.57;;;0.80;;
70433;SDS011;57876;47.792;12.960;2023-07-24T01:41:52;3.50;;;0.80;;
70433;SDS011;57876;47.792;12.960;2023-07-24T01:44:17;3.63;;;0.60;;
70433;SDS011;57876;47.792;12.960;2023-07-24T01:46:44;3.85;;;0.88;;
70433;SDS011;57876;47.792;12.960;2023-07-24T01:49:09;3.40;;;0.90;;
70433;SDS011;57876;47.792;12.960;2023-07-24T01:51:33;3.50;;;0.70;;
70433;SDS011;57876;47.792;12.960;2023-07-24T01:53:58;3.92;;;0.70;;
70433;SDS011;57876;47.792;12.960;2023-07-24T01:56:22;3.60;;;1.00;;
70433;SDS011;57876;47.792;12.960;2023-07-24T01:58:46;3.53;;;0.83;;
70433;SDS011;57876;47.792;12.960;2023-07-24T02:01:11;3.40;;;0.70;;
70433;SDS011;57876;47.792;12.960;2023-07-24T02:03:35;3.30;;;0.60;;
70433;SDS011;57876;47.792;12.960;2023-07-24T02:05:59;3.40;;;0.70;;
70433;SDS011;57876;47.792;12.960;2023-07-24T02:08:24;3.73;;;0.80;;
70433;SDS011;57876;47.792;12.960;2023-07-24T02:10:49;3.80;;;0.80;;
70433;SDS011;57876;47.792;12.960;2023-07-24T02:13:16;4.05;;;0.80;;
70433;SDS011;57876;47.792;12.960;2023-07-24T02:15:43;3.72;;;0.82;;
70433;SDS011;57876;47.792;12.960;2023-07-24T02:18:07;3.33;;;0.70;;
70433;SDS011;57876;47.792;12.960;2023-07-24T02:20:32;3.70;;;0.90;;
70433;SDS011;57876;47.792;12.960;2023-07-24T02:22:56;3.90;;;0.77;;
70433;SDS011;57876;47.792;12.960;2023-07-24T02:25:21;3.30;;;0.67;;
70433;SDS011;57876;47.792;12.960;2023-07-24T02:27:45;3.40;;;0.67;;
70433;SDS011;57876;47.792;12.960;2023-07-24T02:30:10;3.30;;;0.70;;
70433;SDS011;57876;47.792;12.960;2023-07-24T02:32:34;3.50;;;0.80;;
70433;SDS011;57876;47.792;12.960;2023-07-24T02:34:59;3.50;;;0.70;;
70433;SDS011;57876;47.792;12.960;2023-07-24T02:37:23;3.80;;;0.80;;
70433;SDS011;57876;47.792;12.960;2023-07-24T02:39:48;3.45;;;0.73;;
70433;SDS011;57876;47.792;12.960;2023-07-24T02:42:12;3.90;;;0.70;;
70433;SDS011;57876;47.792;12.960;2023-07-24T02:44:37;3.63;;;0.63;;
70433;SDS011;57876;47.792;12.960;2023-07-24T02:47:02;3.03;;;0.60;;
70433;SDS011;57876;47.792;12.960;2023-07-24T02:49:27;3.83;;;0.90;;
70433;SDS011;57876;47.792;12.960;2023-07-24T02:51:52;3.30;;;0.70;;
70433;SDS011;57876;47.792;12.960;2023-07-24T02:54:16;4.20;;;0.87;;
70433;SDS011;57876;47.792;12.960;2023-07-24T02:56:41;4.67;;;0.90;;
70433;SDS011;57876;47.792;12.960;2023-07-24T02:59:05;3.70;;;1.00;;
70433;SDS011;57876;47.792;12.960;2023-07-24T03:01:29;3.80;;;1.00;;
70433;SDS011;57876;47.792;12.960;2023-07-24T03:03:54;3.37;;;0.70;;
70433;SDS011;57876;47.792;12.960;2023-07-24T03:06:18;3.53;;;0.70;;
70433;SDS011;57876;47.792;12.960;2023-07-24T03:08:42;3.17;;;0.70;;
70433;SDS011;57876;47.792;12.960;2023-07-24T03:11:07;3.57;;;0.70;;
70433;SDS011;57876;47.792;12.960;2023-07-24T03:13:31;3.70;;;0.80;;
70433;SDS011;57876;47.792;12.960;2023-07-24T03:15:56;3.60;;;0.80;;
70433;SDS011;57876;47.792;12.960;2023-07-24T03:18:22;3.38;;;0.80;;
70433;SDS011;57876;47.792;12.960;2023-07-24T03:20:46;3.30;;;0.70;;
70433;SDS011;57876;47.792;12.960;2023-07-24T03:23:11;3.97;;;0.80;;
70433;SDS011;57876;47.792;12.960;2023-07-24T03:25:35;3.38;;;0.60;;
70433;SDS011;57876;47.792;12.960;2023-07-24T03:28:00;2.90;;;0.60;;
70433;SDS011;57876;47.792;12.960;2023-07-24T03:30:24;3.40;;;0.80;;
70433;SDS011;57876;47.792;12.960;2023-07-24T03:32:49;3.57;;;0.70;;
70433;SDS011;57876;47.792;12.960;2023-07-24T03:35:13;3.23;;;0.77;;
70433;SDS011;57876;47.792;12.960;2023-07-24T03:37:37;3.60;;;0.80;;
70433;SDS011;57876;47.792;12.960;2023-07-24T03:40:02;3.57;;;0.77;;
70433;SDS011;57876;47.792;12.960;2023-07-24T03:42:27;3.60;;;0.80;;
70433;SDS011;57876;47.792;12.960;2023-07-24T03:44:55;3.95;;;0.82;;
70433;SDS011;57876;47.792;12.960;2023-07-24T03:47:21;3.38;;;0.70;;
70433;SDS011;57876;47.792;12.960;2023-07-24T03:49:45;3.80;;;0.80;;
70433;SDS011;57876;47.792;12.960;2023-07-24T03:52:10;3.25;;;0.63;;
70433;SDS011;57876;47.792;12.960;2023-07-24T03:54:34;3.43;;;0.70;;
70433;SDS011;57876;47.792;12.960;2023-07-24T03:56:59;3.70;;;0.83;;
70433;SDS011;57876;47.792;12.960;2023-07-24T03:59:23;4.03;;;0.90;;
70433;SDS011;57876;47.792;12.960;2023-07-24T04:01:47;3.70;;;0.80;;
70433;SDS011;57876;47.792;12.960;2023-07-24T04:04:12;3.40;;;0.80;;
70433;SDS011;57876;47.792;12.960;2023-07-24T04:06:36;3.67;;;0.73;;
70433;SDS011;57876;47.792;12.960;2023-07-24T04:09:01;4.30;;;0.93;;
70433;SDS011;57876;47.792;12.960;2023-07-24T04:11:25;3.70;;;0.90;;
70433;SDS011;57876;47.792;12.960;2023-07-24T04:13:50;3.87;;;0.93;;
70433;SDS011;57876;47.792;12.960;2023-07-24T04:16:14;4.07;;;0.90;;
70433;SDS011;57876;47.792;12.960;2023-07-24T04:18:39;3.80;;;0.90;;
70433;SDS011;57876;47.792;12.960;2023-07-24T04:21:03;3.90;;;0.82;;
70433;SDS011;57876;47.792;12.960;2023-07-24T04:23:27;3.27;;;0.60;;
70433;SDS011;57876;47.792;12.960;2023-07-24T04:25:52;3.97;;;1.00;;
70433;SDS011;57876;47.792;12.960;2023-07-24T04:28:16;3.27;;;0.70;;
70433;SDS011;57876;47.792;12.960;2023-07-24T04:30:40;3.43;;;0.70;;
70433;SDS011;57876;47.792;12.960;2023-07-24T04:33:05;3.47;;;0.77;;
70433;SDS011;57876;47.792;12.960;2023-07-24T04:35:29;3.73;;;0.70;;
70433;SDS011;57876;47.792;12.960;2023-07-24T04:37:54;3.57;;;0.70;;
70433;SDS011;57876;47.792;12.960;2023-07-24T04:40:18;3.77;;;0.77;;
70433;SDS011;57876;47.792;12.960;2023-07-24T04:42:45;3.80;;;0.90;;
70433;SDS011;57876;47.792;12.960;2023-07-24T04:45:09;3.53;;;0.77;;
70433;SDS011;57876;47.792;12.960;2023-07-24T04:47:34;3.47;;;0.80;;
70433;SDS011;57876;47.792;12.960;2023-07-24T04:50:00;3.83;;;0.90;;
70433;SDS011;57876;47.792;12.960;2023-07-24T04:52:25;3.57;;;0.80;;
70433;SDS011;57876;47.792;12.960;2023-07-24T04:54:49;3.63;;;0.80;;
70433;SDS011;57876;47.792;12.960;2023-07-24T04:57:14;3.77;;;0.80;;
70433;SDS011;57876;47.792;12.960;2023-07-24T04:59:38;4.33;;;1.10;;
70433;SDS011;57876;47.792;12.960;2023-07-24T05:02:03;3.72;;;0.90;;
70433;SDS011;57876;47.792;12.960;2023-07-24T05:04:28;3.83;;;0.80;;
70433;SDS011;57876;47.792;12.960;2023-07-24T05:06:53;3.65;;;0.75;;
70433;SDS011;57876;47.792;12.960;2023-07-24T05:09:17;4.00;;;0.80;;
70433;SDS011;57876;47.792;12.960;2023-07-24T05:11:42;3.88;;;0.82;;
70433;SDS011;57876;47.792;12.960;2023-07-24T05:14:08;3.83;;;0.80;;
70433;SDS011;57876;47.792;12.960;2023-07-24T05:16:33;3.03;;;0.68;;
70433;SDS011;57876;47.792;12.960;2023-07-24T05:18:57;3.40;;;0.70;;
70433;SDS011;57876;47.792;12.960;2023-07-24T05:21:21;3.63;;;0.90;;
70433;SDS011;57876;47.792;12.960;2023-07-24T05:23:46;4.20;;;1.07;;
70433;SDS011;57876;47.792;12.960;2023-07-24T05:26:10;3.80;;;0.90;;
70433;SDS011;57876;47.792;12.960;2023-07-24T05:28:42;3.80;;;0.80;;
70433;SDS011;57876;47.792;12.960;2023-07-24T05:31:09;3.50;;;0.70;;
70433;SDS011;57876;47.792;12.960;2023-07-24T05:33:34;3.70;;;0.70;;
70433;SDS011;57876;47.792;12.960;2023-07-24T05:35:59;4.25;;;0.80;;
70433;SDS011;57876;47.792;12.960;2023-07-24T05:38:27;4.05;;;0.95;;
70433;SDS011;57876;47.792;12.960;2023-07-24T05:40:58;3.80;;;0.90;;
70433;SDS011;57876;47.792;12.960;2023-07-24T05:43:23;3.67;;;0.90;;
70433;SDS011;57876;47.792;12.960;2023-07-24T05:45:49;3.70;;;0.80;;
70433;SDS011;57876;47.792;12.960;2023-07-24T05:48:15;3.63;;;1.00;;
70433;SDS011;57876;47.792;12.960;2023-07-24T05:50:44;3.40;;;0.80;;
70433;SDS011;57876;47.792;12.960;2023-07-24T05:53:08;3.47;;;0.90;;
70433;SDS011;57876;47.792;12.960;2023-07-24T05:55:33;4.00;;;1.00;;
70433;SDS011;57876;47.792;12.960;2023-07-24T05:57:57;3.80;;;0.80;;
70433;SDS011;57876;47.792;12.960;2023-07-24T06:00:24;3.70;;;0.70;;
70433;SDS011;57876;47.792;12.960;2023-07-24T06:02:48;4.10;;;0.90;;
70433;SDS011;57876;47.792;12.960;2023-07-24T06:05:15;3.33;;;0.80;;
70433;SDS011;57876;47.792;12.960;2023-07-24T06:07:40;3.83;;;0.97;;
70433;SDS011;57876;47.792;12.960;2023-07-24T06:10:06;3.70;;;0.83;;
70433;SDS011;57876;47.792;12.960;2023-07-24T06:12:34;4.00;;;0.90;;
70433;SDS011;57876;47.792;12.960;2023-07-24T06:14:58;3.73;;;0.80;;
70433;SDS011;57876;47.792;12.960;2023-07-24T06:17:23;3.88;;;0.80;;
70433;SDS011;57876;47.792;12.960;2023-07-24T06:19:47;3.50;;;0.77;;
70433;SDS011;57876;47.792;12.960;2023-07-24T06:22:11;3.90;;;0.90;;
70433;SDS011;57876;47.792;12.960;2023-07-24T06:24:38;3.95;;;0.90;;
70433;SDS011;57876;47.792;12.960;2023-07-24T06:27:03;3.47;;;0.80;;
70433;SDS011;57876;47.792;12.960;2023-07-24T06:29:30;4.05;;;0.90;;
70433;SDS011;57876;47.792;12.960;2023-07-24T06:31:54;3.67;;;0.90;;
70433;SDS011;57876;47.792;12.960;2023-07-24T06:34:22;3.45;;;0.70;;
70433;SDS011;57876;47.792;12.960;2023-07-24T06:36:48;3.80;;;0.90;;
70433;SDS011;57876;47.792;12.960;2023-07-24T06:39:24;3.83;;;0.80;;
70433;SDS011;57876;47.792;12.960;2023-07-24T06:41:50;3.80;;;0.80;;
70433;SDS011;57876;47.792;12.960;2023-07-24T06:44:16;3.28;;;0.65;;
70433;SDS011;57876;47.792;12.960;2023-07-24T06:46:40;3.70;;;0.80;;
70433;SDS011;57876;47.792;12.960;2023-07-24T06:49:07;3.97;;;0.90;;
70433;SDS011;57876;47.792;12.960;2023-07-24T06:51:35;3.97;;;0.80;;
70433;SDS011;57876;47.792;12.960;2023-07-24T06:53:59;3.83;;;0.90;;
70433;SDS011;57876;47.792;12.960;2023-07-24T06:56:24;3.90;;;0.90;;
70433;SDS011;57876;47.792;12.960;2023-07-24T06:58:48;3.67;;;0.80;;
70433;SDS011;57876;47.792;12.960;2023-07-24T07:01:12;3.20;;;0.70;;
70433;SDS011;57876;47.792;12.960;2023-07-24T07:03:37;3.83;;;0.80;;
70433;SDS011;57876;47.792;12.960;2023-07-24T07:06:03;4.07;;;1.00;;
70433;SDS011;57876;47.792;12.960;2023-07-24T07:08:29;3.75;;;0.70;;
70433;SDS011;57876;47.792;12.960;2023-07-24T07:10:55;3.65;;;0.80;;
70433;SDS011;57876;47.792;12.960;2023-07-24T07:13:23;3.50;;;0.80;;
70433;SDS011;57876;47.792;12.960;2023-07-24T07:15:47;3.67;;;0.77;;
70433;SDS011;57876;47.792;12.960;2023-07-24T07:18:12;3.67;;;0.90;;
70433;SDS011;57876;47.792;12.960;2023-07-24T07:20:36;3.80;;;0.90;;
70433;SDS011;57876;47.792;12.960;2023-07-24T07:23:06;3.70;;;0.70;;
70433;SDS011;57876;47.792;12.960;2023-07-24T07:25:33;3.38;;;0.70;;
70433;SDS011;57876;47.792;12.960;2023-07-24T07:27:57;4.17;;;0.90;;
70433;SDS011;57876;47.792;12.960;2023-07-24T07:30:22;3.60;;;0.90;;
70433;SDS011;57876;47.792;12.960;2023-07-24T07:32:49;3.70;;;0.80;;
70433;SDS011;57876;47.792;12.960;2023-07-24T07:35:14;3.85;;;0.80;;
70433;SDS011;57876;47.792;12.960;2023-07-24T07:37:41;3.35;;;0.70;;
70433;SDS011;57876;47.792;12.960;2023-07-24T07:40:05;3.60;;;0.70;;
70433;SDS011;57876;47.792;12.960;2023-07-24T07:42:30;3.92;;;0.90;;
70433;SDS011;57876;47.792;12.960;2023-07-24T07:44:58;3.60;;;0.73;;
70433;SDS011;57876;47.792;12.960;2023-07-24T07:47:22;3.60;;;0.80;;
70433;SDS011;57876;47.792;12.960;2023-07-24T07:49:47;3.73;;;0.93;;
70433;SDS011;57876;47.792;12.960;2023-07-24T07:52:11;3.60;;;0.73;;
70433;SDS011;57876;47.792;12.960;2023-07-24T07:54:41;3.75;;;0.73;;
70433;SDS011;57876;47.792;12.960;2023-07-24T07:57:05;3.90;;;0.75;;
70433;SDS011;57876;47.792;12.960;2023-07-24T07:59:30;4.00;;;1.10;;
70433;SDS011;57876;47.792;12.960;2023-07-24T08:01:54;3.80;;;0.80;;
70433;SDS011;57876;47.792;12.960;2023-07-24T08:04:21;3.63;;;0.90;;
70433;SDS011;57876;47.792;12.960;2023-07-24T08:06:46;3.72;;;0.90;;
70433;SDS011;57876;47.792;12.960;2023-07-24T08:09:10;3.33;;;0.70;;
70433;SDS011;57876;47.792;12.960;2023-07-24T08:11:34;3.30;;;0.80;;
70433;SDS011;57876;47.792;12.960;2023-07-24T08:14:08;3.38;;;0.75;;
70433;SDS011;57876;47.792;12.960;2023-07-24T08:16:42;3.67;;;0.80;;
70433;SDS011;57876;47.792;12.960;2023-07-24T08:19:07;3.65;;;0.93;;
70433;SDS011;57876;47.792;12.960;2023-07-24T08:21:31;3.57;;;0.70;;
70433;SDS011;57876;47.792;12.960;2023-07-24T08:23:58;3.75;;;0.80;;
70433;SDS011;57876;47.792;12.960;2023-07-24T08:26:25;3.60;;;0.80;;
70433;SDS011;57876;47.792;12.960;2023-07-24T08:28:50;3.67;;;0.80;;
70433;SDS011;57876;47.792;12.960;2023-07-24T08:31:14;4.00;;;1.00;;
70433;SDS011;57876;47.792;12.960;2023-07-24T08:33:41;3.85;;;0.90;;
70433;SDS011;57876;47.792;12.960;2023-07-24T08:36:06;3.13;;;0.60;;
70433;SDS011;57876;47.792;12.960;2023-07-24T08:38:34;3.90;;;0.70;;
70433;SDS011;57876;47.792;12.960;2023-07-24T08:41:13;3.65;;;0.80;;
70433;SDS011;57876;47.792;12.960;2023-07-24T08:43:39;3.53;;;0.80;;
70433;SDS011;57876;47.792;12.960;2023-07-24T08:46:16;3.88;;;0.80;;
70433;SDS011;57876;47.792;12.960;2023-07-24T08:48:42;4.13;;;0.97;;
70433;SDS011;57876;47.792;12.960;2023-07-24T08:51:07;3.33;;;0.70;;
70433;SDS011;57876;47.792;12.960;2023-07-24T08:53:34;3.65;;;0.73;;
70433;SDS011;57876;47.792;12.960;2023-07-24T08:56:05;3.97;;;0.85;;
70433;SDS011;57876;47.792;12.960;2023-07-24T08:58:34;3.73;;;0.80;;
70433;SDS011;57876;47.792;12.960;2023-07-24T09:01:09;3.55;;;0.80;;
70433;SDS011;57876;47.792;12.960;2023-07-24T09:03:33;3.72;;;0.82;;
70433;SDS011;57876;47.792;12.960;2023-07-24T09:06:01;3.50;;;0.80;;
70433;SDS011;57876;47.792;12.960;2023-07-24T09:08:31;3.77;;;0.80;;
70433;SDS011;57876;47.792;12.960;2023-07-24T09:10:58;3.50;;;0.70;;
70433;SDS011;57876;47.792;12.960;2023-07-24T09:13:23;4.05;;;1.10;;
70433;SDS011;57876;47.792;12.960;2023-07-24T09:15:47;4.20;;;1.00;;
70433;SDS011;57876;47.792;12.960;2023-07-24T09:18:12;3.72;;;0.90;;
70433;SDS011;57876;47.792;12.960;2023-07-24T09:20:40;3.63;;;0.70;;
70433;SDS011;57876;47.792;12.960;2023-07-24T09:23:06;4.07;;;0.80;;
70433;SDS011;57876;47.792;12.960;2023-07-24T09:25:33;3.75;;;0.80;;
70433;SDS011;57876;47.792;12.960;2023-07-24T09:27:58;4.20;;;0.95;;
70433;SDS011;57876;47.792;12.960;2023-07-24T09:30:23;5.13;;;1.30;;
70433;SDS011;57876;47.792;12.960;2023-07-24T09:32:51;5.57;;;1.40;;
70433;SDS011;57876;47.792;12.960;2023-07-24T09:35:19;5.30;;;1.60;;
70433;SDS011;57876;47.792;12.960;2023-07-24T09:37:44;5.80;;;2.30;;
70433;SDS011;57876;47.792;12.960;2023-07-24T09:40:10;5.82;;;1.88;;
70433;SDS011;57876;47.792;12.960;2023-07-24T09:42:36;6.75;;;3.13;;
70433;SDS011;57876;47.792;12.960;2023-07-24T09:45:03;5.95;;;3.08;;
70433;SDS011;57876;47.792;12.960;2023-07-24T09:47:29;6.72;;;3.10;;
70433;SDS011;57876;47.792;12.960;2023-07-24T09:49:54;6.10;;;3.20;;
70433;SDS011;57876;47.792;12.960;2023-07-24T09:52:19;7.30;;;3.67;;
70433;SDS011;57876;47.792;12.960;2023-07-24T09:57:38;7.20;;;5.32;;
70433;SDS011;57876;47.792;12.960;2023-07-24T10:00:06;7.43;;;6.22;;
70433;SDS011;57876;47.792;12.960;2023-07-24T10:02:37;9.30;;;8.40;;
70433;SDS011;57876;47.792;12.960;2023-07-24T10:05:03;9.15;;;7.97;;
70433;SDS011;57876;47.792;12.960;2023-07-24T10:07:29;13.02;;;11.82;;
70433;SDS011;57876;47.792;12.960;2023-07-24T10:09:53;10.93;;;9.85;;
70433;SDS011;57876;47.792;12.960;2023-07-24T10:12:19;10.73;;;9.73;;
70433;SDS011;57876;47.792;12.960;2023-07-24T10:14:45;8.75;;;7.85;;
70433;SDS011;57876;47.792;12.960;2023-07-24T10:17:20;8.75;;;7.85;;
70433;SDS011;57876;47.792;12.960;2023-07-24T10:22:52;8.60;;;4.40;;
70433;SDS011;57876;47.792;12.960;2023-07-24T10:25:17;7.37;;;4.63;;
70433;SDS011;57876;47.792;12.960;2023-07-24T10:31:20;7.93;;;6.25;;
70433;SDS011;57876;47.792;12.960;2023-07-24T10:33:45;8.53;;;7.00;;
70433;SDS011;57876;47.792;12.960;2023-07-24T10:36:10;7.72;;;6.55;;
70433;SDS011;57876;47.792;12.960;2023-07-24T10:38:37;8.27;;;7.35;;
70433;SDS011;57876;47.792;12.960;2023-07-24T10:41:03;8.60;;;7.20;;
70433;SDS011;57876;47.792;12.960;2023-07-24T10:43:28;8.63;;;7.25;;
70433;SDS011;57876;47.792;12.960;2023-07-24T10:45:53;9.00;;;7.43;;
70433;SDS011;57876;47.792;12.960;2023-07-24T10:48:21;8.18;;;7.38;;
70433;SDS011;57876;47.792;12.960;2023-07-24T10:50:48;9.25;;;7.90;;
70433;SDS011;57876;47.792;12.960;2023-07-24T10:53:15;8.30;;;7.20;;
70433;SDS011;57876;47.792;12.960;2023-07-24T10:55:41;8.50;;;7.60;;
70433;SDS011;57876;47.792;12.960;2023-07-24T10:58:09;9.00;;;7.63;;
70433;SDS011;57876;47.792;12.960;2023-07-24T11:00:43;9.02;;;8.13;;
70433;SDS011;57876;47.792;12.960;2023-07-24T11:03:11;8.75;;;7.72;;
70433;SDS011;57876;47.792;12.960;2023-07-24T11:05:43;8.57;;;7.63;;
70433;SDS011;57876;47.792;12.960;2023-07-24T11:08:10;8.80;;;7.90;;
70433;SDS011;57876;47.792;12.960;2023-07-24T11:10:38;9.38;;;8.48;;
70433;SDS011;57876;47.792;12.960;2023-07-24T11:13:10;8.93;;;8.02;;
70433;SDS011;57876;47.792;12.960;2023-07-24T11:15:36;9.57;;;8.63;;
70433;SDS011;57876;47.792;12.960;2023-07-24T11:18:00;9.10;;;8.20;;
70433;SDS011;57876;47.792;12.960;2023-07-24T11:20:26;9.55;;;8.55;;
70433;SDS011;57876;47.792;12.960;2023-07-24T11:22:51;9.50;;;8.53;;
70433;SDS011;57876;47.792;12.960;2023-07-24T11:25:18;9.50;;;8.20;;
70433;SDS011;57876;47.792;12.960;2023-07-24T11:27:43;10.03;;;8.33;;
70433;SDS011;57876;47.792;12.960;2023-07-24T11:30:08;9.60;;;8.60;;
70433;SDS011;57876;47.792;12.960;2023-07-24T11:32:33;10.00;;;8.70;;
70433;SDS011;57876;47.792;12.960;2023-07-24T11:35:04;12.93;;;8.33;;
70433;SDS011;57876;47.792;12.960;2023-07-24T11:37:29;16.35;;;8.55;;
70433;SDS011;57876;47.792;12.960;2023-07-24T11:39:57;11.52;;;9.13;;
70433;SDS011;57876;47.792;12.960;2023-07-24T12:00:24;13.10;;;8.25;;
70433;SDS011;57876;47.792;12.960;2023-07-24T12:02:50;11.10;;;8.30;;
70433;SDS011;57876;47.792;12.960;2023-07-24T12:05:14;11.40;;;8.38;;
70433;SDS011;57876;47.792;12.960;2023-07-24T12:07:39;15.03;;;8.13;;
70433;SDS011;57876;47.792;12.960;2023-07-24T12:10:04;11.37;;;8.30;;
70433;SDS011;57876;47.792;12.960;2023-07-24T12:13:04;12.57;;;8.77;;
70433;SDS011;57876;47.792;12.960;2023-07-24T12:15:23;13.88;;;8.57;;
70433;SDS011;57876;47.792;12.960;2023-07-24T12:17:47;14.07;;;9.10;;
70433;SDS011;57876;47.792;12.960;2023-07-24T12:20:11;12.57;;;8.50;;
70433;SDS011;57876;47.792;12.960;2023-07-24T12:22:36;11.90;;;8.63;;
70433;SDS011;57876;47.792;12.960;2023-07-24T12:25:02;9.47;;;8.13;;
70433;SDS011;57876;47.792;12.960;2023-07-24T12:27:27;10.70;;;8.55;;
70433;SDS011;57876;47.792;12.960;2023-07-24T12:29:52;11.17;;;8.50;;
70433;SDS011;57876;47.792;12.960;2023-07-24T12:32:16;12.53;;;9.07;;
70433;SDS011;57876;47.792;12.960;2023-07-24T12:34:41;10.57;;;8.80;;
70433;SDS011;57876;47.792;12.960;2023-07-24T12:37:05;10.63;;;8.60;;
70433;SDS011;57876;47.792;12.960;2023-07-24T12:39:30;11.98;;;8.57;;
70433;SDS011;57876;47.792;12.960;2023-07-24T12:41:54;13.67;;;9.30;;
70433;SDS011;57876;47.792;12.960;2023-07-24T12:44:19;11.37;;;8.80;;
70433;SDS011;57876;47.792;12.960;2023-07-24T12:46:43;13.30;;;9.07;;
70433;SDS011;57876;47.792;12.960;2023-07-24T12:49:07;10.67;;;8.97;;
70433;SDS011;57876;47.792;12.960;2023-07-24T12:51:32;10.97;;;8.63;;
70433;SDS011;57876;47.792;12.960;2023-07-24T12:53:56;10.43;;;8.97;;
70433;SDS011;57876;47.792;12.960;2023-07-24T12:56:20;10.17;;;7.73;;
70433;SDS011;57876;47.792;12.960;2023-07-24T12:58:45;10.67;;;8.97;;
70433;SDS011;57876;47.792;12.960;2023-07-24T13:01:09;9.40;;;8.40;;
70433;SDS011;57876;47.792;12.960;2023-07-24T13:03:34;10.23;;;8.80;;
70433;SDS011;57876;47.792;12.960;2023-07-24T13:05:58;11.73;;;8.90;;
70433;SDS011;57876;47.792;12.960;2023-07-24T13:08:23;9.32;;;8.30;;
70433;SDS011;57876;47.792;12.960;2023-07-24T13:10:47;9.83;;;8.50;;
70433;SDS011;57876;47.792;12.960;2023-07-24T13:13:12;10.67;;;8.50;;
70433;SDS011;57876;47.792;12.960;2023-07-24T13:15:36;10.00;;;8.10;;
70433;SDS011;57876;47.792;12.960;2023-07-24T13:18:01;9.77;;;8.77;;
70433;SDS011;57876;47.792;12.960;2023-07-24T13:20:25;11.90;;;8.93;;
70433;SDS011;57876;47.792;12.960;2023-07-24T13:22:49;9.77;;;8.13;;
70433;SDS011;57876;47.792;12.960;2023-07-24T13:25:14;9.73;;;8.23;;
70433;SDS011;57876;47.792;12.960;2023-07-24T13:27:38;9.67;;;8.57;;
70433;SDS011;57876;47.792;12.960;2023-07-24T13:30:03;9.30;;;8.30;;
70433;SDS011;57876;47.792;12.960;2023-07-24T13:32:27;9.53;;;8.53;;
70433;SDS011;57876;47.792;12.960;2023-07-24T13:34:53;9.85;;;8.80;;
70433;SDS011;57876;47.792;12.960;2023-07-24T13:37:18;9.23;;;8.23;;
70433;SDS011;57876;47.792;12.960;2023-07-24T14:40:33;9.43;;;8.35;;
70433;SDS011;57876;47.792;12.960;2023-07-24T14:56:53;10.65;;;8.23;;
70433;SDS011;57876;47.792;12.960;2023-07-24T14:59:19;9.70;;;8.70;;
70433;SDS011;57876;47.792;12.960;2023-07-24T15:01:47;9.80;;;8.80;;
70433;SDS011;57876;47.792;12.960;2023-07-24T15:04:11;10.03;;;9.03;;
70433;SDS011;57876;47.792;12.960;2023-07-24T15:06:35;9.67;;;8.67;;
70433;SDS011;57876;47.792;12.960;2023-07-24T15:09:00;10.47;;;8.87;;
70433;SDS011;57876;47.792;12.960;2023-07-24T15:11:24;9.43;;;8.43;;
70433;SDS011;57876;47.792;12.960;2023-07-24T15:13:49;9.10;;;8.20;;
70433;SDS011;57876;47.792;12.960;2023-07-24T15:16:13;10.53;;;8.93;;
70433;SDS011;57876;47.792;12.960;2023-07-24T15:18:38;9.60;;;8.60;;
70433;SDS011;57876;47.792;12.960;2023-07-24T15:21:02;9.93;;;8.93;;
70433;SDS011;57876;47.792;12.960;2023-07-24T15:23:28;9.57;;;8.60;;
70433;SDS011;57876;47.792;12.960;2023-07-24T15:25:52;10.10;;;8.77;;
70433;SDS011;57876;47.792;12.960;2023-07-24T15:28:16;9.73;;;8.73;;
70433;SDS011;57876;47.792;12.960;2023-07-24T15:30:49;9.98;;;8.90;;
70433;SDS011;57876;47.792;12.960;2023-07-24T15:33:48;9.10;;;8.20;;
70433;SDS011;57876;47.792;12.960;2023-07-24T15:36:31;9.32;;;7.97;;
70433;SDS011;57876;47.792;12.960;2023-07-24T15:42:44;9.35;;;7.82;;
70433;SDS011;57876;47.792;12.960;2023-07-24T15:45:42;9.30;;;8.40;;
70433;SDS011;57876;47.792;12.960;2023-07-24T15:48:06;9.03;;;8.13;;
70433;SDS011;57876;47.792;12.960;2023-07-24T15:50:31;9.60;;;8.60;;
70433;SDS011;57876;47.792;12.960;2023-07-24T15:52:55;8.73;;;7.83;;
70433;SDS011;57876;47.792;12.960;2023-07-24T15:55:19;9.67;;;8.67;;
70433;SDS011;57876;47.792;12.960;2023-07-24T15:57:44;9.73;;;8.53;;
70433;SDS011;57876;47.792;12.960;2023-07-24T16:00:09;9.13;;;8.23;;
70433;SDS011;57876;47.792;12.960;2023-07-24T16:02:34;8.98;;;8.07;;
70433;SDS011;57876;47.792;12.960;2023-07-24T16:04:59;9.20;;;8.27;;
70433;SDS011;57876;47.792;12.960;2023-07-24T16:07:23;9.07;;;8.17;;
70433;SDS011;57876;47.792;12.960;2023-07-24T16:09:48;9.35;;;8.32;;
70433;SDS011;57876;47.792;12.960;2023-07-24T16:12:12;8.53;;;7.43;;